sensor_id;sensor_type;location;lat;lon;timestamp;temperature;humidity
43991;DHT22;29654;50.784;20.604;2023-08-31T00:04:50;23.20;57.50
43991;DHT22;29654;50.784;20.604;2023-08-31T00:09:53;23.10;57.50
43991;DHT22;29654;50.784;20.604;2023-08-31T00:14:56;23.10;57.50
43991;DHT22;29654;50.784;20.604;2023-08-31T00:20:00;23.10;57.50
43991;DHT22;29654;50.784;20.604;2023-08-31T00:25:04;23.10;57.70
43991;DHT22;29654;50.784;20.604;2023-08-31T00:30:10;23.00;57.70
43991;DHT22;29654;50.784;20.604;2023-08-31T00:35:17;23.00;57.80
43991;DHT22;29654;50.784;20.604;2023-08-31T00:40:19;23.00;57.70
43991;DHT22;29654;50.784;20.604;2023-08-31T00:45:22;23.00;57.60
43991;DHT22;29654;50.784;20.604;2023-08-31T00:50:26;22.90;57.50
43991;DHT22;29654;50.784;20.604;2023-08-31T00:55:29;22.90;57.40
43991;DHT22;29654;50.784;20.604;2023-08-31T01:00:37;22.70;57.40
43991;DHT22;29654;50.784;20.604;2023-08-31T01:05:51;22.70;57.50
43991;DHT22;29654;50.784;20.604;2023-08-31T01:11:07;22.70;57.50
43991;DHT22;29654;50.784;20.604;2023-08-31T01:16:19;22.60;57.60
43991;DHT22;29654;50.784;20.604;2023-08-31T01:21:27;22.60;57.70
43991;DHT22;29654;50.784;20.604;2023-08-31T01:26:33;22.70;57.80
43991;DHT22;29654;50.784;20.604;2023-08-31T01:31:42;22.50;57.80
43991;DHT22;29654;50.784;20.604;2023-08-31T01:36:48;22.50;57.80
43991;DHT22;29654;50.784;20.604;2023-08-31T01:42:00;22.50;57.70
43991;DHT22;29654;50.784;20.604;2023-08-31T01:47:06;22.40;57.70
43991;DHT22;29654;50.784;20.604;2023-08-31T01:52:09;22.40;57.80
43991;DHT22;29654;50.784;20.604;2023-08-31T01:57:13;22.30;57.80
43991;DHT22;29654;50.784;20.604;2023-08-31T02:02:36;22.30;57.90
43991;DHT22;29654;50.784;20.604;2023-08-31T02:07:39;22.20;57.90
43991;DHT22;29654;50.784;20.604;2023-08-31T02:12:43;22.20;58.00
43991;DHT22;29654;50.784;20.604;2023-08-31T02:17:46;22.20;58.10
43991;DHT22;29654;50.784;20.604;2023-08-31T02:22:50;22.20;58.10
43991;DHT22;29654;50.784;20.604;2023-08-31T02:27:54;22.20;58.10
43991;DHT22;29654;50.784;20.604;2023-08-31T02:32:56;22.20;58.20
43991;DHT22;29654;50.784;20.604;2023-08-31T02:37:59;22.20;58.20
43991;DHT22;29654;50.784;20.604;2023-08-31T02:43:03;22.20;58.20
43991;DHT22;29654;50.784;20.604;2023-08-31T02:48:07;22.20;58.20
43991;DHT22;29654;50.784;20.604;2023-08-31T02:53:09;22.20;58.20
43991;DHT22;29654;50.784;20.604;2023-08-31T02:58:13;22.30;58.10
43991;DHT22;29654;50.784;20.604;2023-08-31T03:03:17;22.20;58.00
43991;DHT22;29654;50.784;20.604;2023-08-31T03:08:20;22.20;58.10
43991;DHT22;29654;50.784;20.604;2023-08-31T03:13:24;22.20;58.80
43991;DHT22;29654;50.784;20.604;2023-08-31T03:18:28;22.20;58.20
43991;DHT22;29654;50.784;20.604;2023-08-31T03:23:31;22.20;58.20
43991;DHT22;29654;50.784;20.604;2023-08-31T03:28:35;22.20;58.20
43991;DHT22;29654;50.784;20.604;2023-08-31T03:33:39;22.30;58.30
43991;DHT22;29654;50.784;20.604;2023-08-31T03:38:42;22.30;58.30
43991;DHT22;29654;50.784;20.604;2023-08-31T03:43:46;22.30;58.30
43991;DHT22;29654;50.784;20.604;2023-08-31T03:48:48;22.30;58.20
43991;DHT22;29654;50.784;20.604;2023-08-31T03:53:51;22.30;58.20
43991;DHT22;29654;50.784;20.604;2023-08-31T03:58:58;22.30;58.20
43991;DHT22;29654;50.784;20.604;2023-08-31T04:04:01;22.30;58.10
43991;DHT22;29654;50.784;20.604;2023-08-31T04:09:05;22.30;58.70
43991;DHT22;29654;50.784;20.604;2023-08-31T04:14:09;22.30;58.10
43991;DHT22;29654;50.784;20.604;2023-08-31T04:19:12;22.30;58.10
43991;DHT22;29654;50.784;20.604;2023-08-31T04:24:15;22.30;58.20
43991;DHT22;29654;50.784;20.604;2023-08-31T04:29:18;22.30;58.20
43991;DHT22;29654;50.784;20.604;2023-08-31T04:34:21;22.30;58.30
43991;DHT22;29654;50.784;20.604;2023-08-31T04:39:24;22.30;58.40
43991;DHT22;29654;50.784;20.604;2023-08-31T04:44:29;22.30;58.40
43991;DHT22;29654;50.784;20.604;2023-08-31T04:49:31;22.40;58.40
43991;DHT22;29654;50.784;20.604;2023-08-31T04:54:34;22.40;58.40
43991;DHT22;29654;50.784;20.604;2023-08-31T04:59:38;22.40;58.30
43991;DHT22;29654;50.784;20.604;2023-08-31T05:04:40;22.40;58.30
43991;DHT22;29654;50.784;20.604;2023-08-31T05:09:43;22.50;58.30
43991;DHT22;29654;50.784;20.604;2023-08-31T05:14:47;22.50;58.30
43991;DHT22;29654;50.784;20.604;2023-08-31T05:19:49;22.60;58.30
43991;DHT22;29654;50.784;20.604;2023-08-31T05:24:52;22.60;58.40
43991;DHT22;29654;50.784;20.604;2023-08-31T05:29:56;22.60;58.40
43991;DHT22;29654;50.784;20.604;2023-08-31T05:34:58;22.70;58.30
43991;DHT22;29654;50.784;20.604;2023-08-31T05:40:01;22.80;58.40
43991;DHT22;29654;50.784;20.604;2023-08-31T05:45:13;22.90;58.40
43991;DHT22;29654;50.784;20.604;2023-08-31T05:50:16;23.00;58.30
43991;DHT22;29654;50.784;20.604;2023-08-31T05:55:18;23.10;58.30
43991;DHT22;29654;50.784;20.604;2023-08-31T06:00:24;23.10;58.10
43991;DHT22;29654;50.784;20.604;2023-08-31T06:05:26;23.30;58.00
43991;DHT22;29654;50.784;20.604;2023-08-31T06:10:30;23.30;58.00
43991;DHT22;29654;50.784;20.604;2023-08-31T06:15:34;23.40;57.90
43991;DHT22;29654;50.784;20.604;2023-08-31T06:20:37;23.50;57.70
43991;DHT22;29654;50.784;20.604;2023-08-31T06:25:40;23.60;57.70
43991;DHT22;29654;50.784;20.604;2023-08-31T06:30:43;23.70;57.70
43991;DHT22;29654;50.784;20.604;2023-08-31T06:35:47;23.90;57.40
43991;DHT22;29654;50.784;20.604;2023-08-31T06:40:52;24.00;57.30
43991;DHT22;29654;50.784;20.604;2023-08-31T06:46:00;24.20;57.40
43991;DHT22;29654;50.784;20.604;2023-08-31T06:51:03;24.50;57.20
43991;DHT22;29654;50.784;20.604;2023-08-31T06:56:05;24.70;57.10
43991;DHT22;29654;50.784;20.604;2023-08-31T07:01:09;24.90;56.80
43991;DHT22;29654;50.784;20.604;2023-08-31T07:06:13;25.20;56.00
43991;DHT22;29654;50.784;20.604;2023-08-31T07:11:16;25.40;55.60
43991;DHT22;29654;50.784;20.604;2023-08-31T07:16:20;25.40;55.00
43991;DHT22;29654;50.784;20.604;2023-08-31T07:21:23;25.50;55.40
43991;DHT22;29654;50.784;20.604;2023-08-31T07:26:25;25.60;54.80
43991;DHT22;29654;50.784;20.604;2023-08-31T07:31:29;25.70;54.80
43991;DHT22;29654;50.784;20.604;2023-08-31T07:36:32;25.70;54.20
43991;DHT22;29654;50.784;20.604;2023-08-31T07:41:35;25.80;54.20
43991;DHT22;29654;50.784;20.604;2023-08-31T07:46:39;25.80;54.00
43991;DHT22;29654;50.784;20.604;2023-08-31T07:51:41;25.90;54.30
43991;DHT22;29654;50.784;20.604;2023-08-31T07:56:44;26.10;54.20
43991;DHT22;29654;50.784;20.604;2023-08-31T08:01:48;26.20;53.90
43991;DHT22;29654;50.784;20.604;2023-08-31T08:06:51;26.30;53.30
43991;DHT22;29654;50.784;20.604;2023-08-31T08:11:53;26.40;53.30
43991;DHT22;29654;50.784;20.604;2023-08-31T08:16:57;26.50;52.90
43991;DHT22;29654;50.784;20.604;2023-08-31T08:22:00;26.60;52.20
43991;DHT22;29654;50.784;20.604;2023-08-31T08:27:03;26.70;52.40
43991;DHT22;29654;50.784;20.604;2023-08-31T08:32:08;26.80;52.40
43991;DHT22;29654;50.784;20.604;2023-08-31T08:37:10;26.90;52.10
43991;DHT22;29654;50.784;20.604;2023-08-31T08:42:13;27.00;52.00
43991;DHT22;29654;50.784;20.604;2023-08-31T08:47:17;27.10;52.10
43991;DHT22;29654;50.784;20.604;2023-08-31T08:52:20;27.20;51.40
43991;DHT22;29654;50.784;20.604;2023-08-31T08:57:23;27.30;51.30
43991;DHT22;29654;50.784;20.604;2023-08-31T09:02:27;27.30;51.10
43991;DHT22;29654;50.784;20.604;2023-08-31T09:07:33;27.30;50.90
43991;DHT22;29654;50.784;20.604;2023-08-31T09:12:37;27.40;51.20
43991;DHT22;29654;50.784;20.604;2023-08-31T09:17:42;27.50;51.00
43991;DHT22;29654;50.784;20.604;2023-08-31T09:22:45;27.70;50.50
43991;DHT22;29654;50.784;20.604;2023-08-31T09:27:49;27.80;50.30
43991;DHT22;29654;50.784;20.604;2023-08-31T09:32:53;27.90;50.30
43991;DHT22;29654;50.784;20.604;2023-08-31T09:37:56;28.00;49.30
43991;DHT22;29654;50.784;20.604;2023-08-31T09:42:59;28.00;49.30
43991;DHT22;29654;50.784;20.604;2023-08-31T09:48:04;28.10;49.10
43991;DHT22;29654;50.784;20.604;2023-08-31T09:53:12;28.10;48.80
43991;DHT22;29654;50.784;20.604;2023-08-31T09:58:20;28.20;48.70
43991;DHT22;29654;50.784;20.604;2023-08-31T10:03:26;28.20;49.10
43991;DHT22;29654;50.784;20.604;2023-08-31T10:08:29;28.40;48.90
43991;DHT22;29654;50.784;20.604;2023-08-31T10:13:34;28.50;49.30
43991;DHT22;29654;50.784;20.604;2023-08-31T10:18:40;28.60;48.70
43991;DHT22;29654;50.784;20.604;2023-08-31T10:23:45;28.80;48.60
43991;DHT22;29654;50.784;20.604;2023-08-31T10:28:48;29.00;48.10
43991;DHT22;29654;50.784;20.604;2023-08-31T10:33:59;29.10;47.90
43991;DHT22;29654;50.784;20.604;2023-08-31T10:39:12;29.20;46.80
43991;DHT22;29654;50.784;20.604;2023-08-31T10:44:20;29.20;46.50
43991;DHT22;29654;50.784;20.604;2023-08-31T10:49:24;29.30;46.60
43991;DHT22;29654;50.784;20.604;2023-08-31T10:54:31;29.30;46.90
43991;DHT22;29654;50.784;20.604;2023-08-31T10:59:46;29.30;46.60
43991;DHT22;29654;50.784;20.604;2023-08-31T11:04:54;29.40;45.90
43991;DHT22;29654;50.784;20.604;2023-08-31T11:10:14;29.40;45.60
43991;DHT22;29654;50.784;20.604;2023-08-31T11:15:19;29.50;45.30
43991;DHT22;29654;50.784;20.604;2023-08-31T11:20:24;29.50;46.20
43991;DHT22;29654;50.784;20.604;2023-08-31T11:25:30;29.60;45.60
43991;DHT22;29654;50.784;20.604;2023-08-31T11:30:34;29.70;45.60
43991;DHT22;29654;50.784;20.604;2023-08-31T11:35:41;29.70;45.60
43991;DHT22;29654;50.784;20.604;2023-08-31T11:40:45;29.70;44.80
43991;DHT22;29654;50.784;20.604;2023-08-31T11:45:48;29.70;45.30
43991;DHT22;29654;50.784;20.604;2023-08-31T11:50:53;29.60;45.60
43991;DHT22;29654;50.784;20.604;2023-08-31T11:55:57;29.70;45.10
43991;DHT22;29654;50.784;20.604;2023-08-31T12:01:04;29.70;44.80
43991;DHT22;29654;50.784;20.604;2023-08-31T12:06:08;29.80;44.50
43991;DHT22;29654;50.784;20.604;2023-08-31T12:11:11;29.80;44.30
43991;DHT22;29654;50.784;20.604;2023-08-31T12:16:14;29.90;44.50
43991;DHT22;29654;50.784;20.604;2023-08-31T12:21:20;30.00;44.30
43991;DHT22;29654;50.784;20.604;2023-08-31T12:26:23;30.10;43.70
43991;DHT22;29654;50.784;20.604;2023-08-31T12:31:26;30.10;44.30
43991;DHT22;29654;50.784;20.604;2023-08-31T12:36:30;30.20;44.00
43991;DHT22;29654;50.784;20.604;2023-08-31T12:41:32;30.20;43.70
43991;DHT22;29654;50.784;20.604;2023-08-31T12:46:35;30.30;43.90
43991;DHT22;29654;50.784;20.604;2023-08-31T12:51:39;30.30;43.40
43991;DHT22;29654;50.784;20.604;2023-08-31T12:56:42;30.30;43.50
43991;DHT22;29654;50.784;20.604;2023-08-31T13:01:44;30.30;43.60
43991;DHT22;29654;50.784;20.604;2023-08-31T13:06:48;30.40;43.30
43991;DHT22;29654;50.784;20.604;2023-08-31T13:11:51;30.40;42.70
43991;DHT22;29654;50.784;20.604;2023-08-31T13:16:53;30.30;42.70
43991;DHT22;29654;50.784;20.604;2023-08-31T13:21:58;30.30;42.90
43991;DHT22;29654;50.784;20.604;2023-08-31T13:27:00;30.20;42.80
43991;DHT22;29654;50.784;20.604;2023-08-31T13:32:05;30.30;43.20
43991;DHT22;29654;50.784;20.604;2023-08-31T13:37:09;30.20;42.90
43991;DHT22;29654;50.784;20.604;2023-08-31T13:42:12;30.20;42.50
43991;DHT22;29654;50.784;20.604;2023-08-31T13:47:14;30.10;42.60
43991;DHT22;29654;50.784;20.604;2023-08-31T13:52:18;30.00;42.70
43991;DHT22;29654;50.784;20.604;2023-08-31T13:57:22;30.10;42.50
43991;DHT22;29654;50.784;20.604;2023-08-31T14:02:24;30.10;42.80
43991;DHT22;29654;50.784;20.604;2023-08-31T14:07:28;30.30;42.70
43991;DHT22;29654;50.784;20.604;2023-08-31T14:12:31;30.30;42.60
43991;DHT22;29654;50.784;20.604;2023-08-31T14:17:33;30.30;43.20
43991;DHT22;29654;50.784;20.604;2023-08-31T14:22:37;30.40;42.40
43991;DHT22;29654;50.784;20.604;2023-08-31T14:27:43;30.40;42.10
43991;DHT22;29654;50.784;20.604;2023-08-31T14:32:46;30.30;42.20
43991;DHT22;29654;50.784;20.604;2023-08-31T14:37:50;30.30;42.10
43991;DHT22;29654;50.784;20.604;2023-08-31T14:42:52;30.20;41.80
43991;DHT22;29654;50.784;20.604;2023-08-31T14:47:55;30.20;42.00
43991;DHT22;29654;50.784;20.604;2023-08-31T14:52:58;30.00;42.50
43991;DHT22;29654;50.784;20.604;2023-08-31T14:58:01;29.70;40.30
43991;DHT22;29654;50.784;20.604;2023-08-31T15:03:06;28.90;41.50
43991;DHT22;29654;50.784;20.604;2023-08-31T15:08:10;28.00;43.00
43991;DHT22;29654;50.784;20.604;2023-08-31T15:13:13;27.10;44.30
43991;DHT22;29654;50.784;20.604;2023-08-31T15:18:16;26.30;45.50
43991;DHT22;29654;50.784;20.604;2023-08-31T15:23:21;25.60;46.80
43991;DHT22;29654;50.784;20.604;2023-08-31T15:28:24;25.20;47.90
43991;DHT22;29654;50.784;20.604;2023-08-31T15:33:27;24.70;48.30
43991;DHT22;29654;50.784;20.604;2023-08-31T15:38:31;24.50;49.00
43991;DHT22;29654;50.784;20.604;2023-08-31T15:43:35;24.30;49.80
43991;DHT22;29654;50.784;20.604;2023-08-31T15:48:39;24.10;50.10
43991;DHT22;29654;50.784;20.604;2023-08-31T15:53:43;24.00;50.40
43991;DHT22;29654;50.784;20.604;2023-08-31T15:58:46;23.90;51.00
43991;DHT22;29654;50.784;20.604;2023-08-31T16:03:49;23.80;51.00
43991;DHT22;29654;50.784;20.604;2023-08-31T16:08:53;23.70;51.30
43991;DHT22;29654;50.784;20.604;2023-08-31T16:13:56;23.70;51.80
43991;DHT22;29654;50.784;20.604;2023-08-31T16:18:58;23.70;52.00
43991;DHT22;29654;50.784;20.604;2023-08-31T16:24:03;23.70;51.90
43991;DHT22;29654;50.784;20.604;2023-08-31T16:29:06;23.80;52.00
43991;DHT22;29654;50.784;20.604;2023-08-31T16:34:10;23.90;51.80
43991;DHT22;29654;50.784;20.604;2023-08-31T16:39:15;24.00;51.60
43991;DHT22;29654;50.784;20.604;2023-08-31T16:44:19;24.00;51.70
43991;DHT22;29654;50.784;20.604;2023-08-31T16:49:23;24.00;51.50
43991;DHT22;29654;50.784;20.604;2023-08-31T16:54:27;24.00;51.80
43991;DHT22;29654;50.784;20.604;2023-08-31T16:59:30;23.90;51.90
43991;DHT22;29654;50.784;20.604;2023-08-31T17:04:33;23.80;52.00
43991;DHT22;29654;50.784;20.604;2023-08-31T17:09:38;23.80;52.20
43991;DHT22;29654;50.784;20.604;2023-08-31T17:14:42;23.70;52.40
43991;DHT22;29654;50.784;20.604;2023-08-31T17:19:51;23.60;52.30
43991;DHT22;29654;50.784;20.604;2023-08-31T17:24:57;23.70;52.70
43991;DHT22;29654;50.784;20.604;2023-08-31T17:30:01;23.60;52.50
43991;DHT22;29654;50.784;20.604;2023-08-31T17:35:08;23.60;52.30
43991;DHT22;29654;50.784;20.604;2023-08-31T17:40:12;23.60;52.30
43991;DHT22;29654;50.784;20.604;2023-08-31T17:45:14;23.60;52.30
43991;DHT22;29654;50.784;20.604;2023-08-31T17:50:17;23.60;52.30
43991;DHT22;29654;50.784;20.604;2023-08-31T17:55:22;23.60;52.20
43991;DHT22;29654;50.784;20.604;2023-08-31T18:00:25;23.60;52.30
43991;DHT22;29654;50.784;20.604;2023-08-31T18:05:28;23.50;52.00
43991;DHT22;29654;50.784;20.604;2023-08-31T18:10:32;23.50;51.90
43991;DHT22;29654;50.784;20.604;2023-08-31T18:15:34;23.40;51.90
43991;DHT22;29654;50.784;20.604;2023-08-31T18:20:37;23.30;51.80
43991;DHT22;29654;50.784;20.604;2023-08-31T18:25:45;23.20;51.80
43991;DHT22;29654;50.784;20.604;2023-08-31T18:30:54;23.10;52.10
43991;DHT22;29654;50.784;20.604;2023-08-31T18:35:58;23.10;52.40
43991;DHT22;29654;50.784;20.604;2023-08-31T18:41:02;22.90;52.00
43991;DHT22;29654;50.784;20.604;2023-08-31T18:46:05;22.80;52.30
43991;DHT22;29654;50.784;20.604;2023-08-31T18:51:08;22.70;52.20
43991;DHT22;29654;50.784;20.604;2023-08-31T18:56:12;22.60;52.50
43991;DHT22;29654;50.784;20.604;2023-08-31T19:01:15;22.60;52.80
43991;DHT22;29654;50.784;20.604;2023-08-31T19:06:18;22.50;52.90
43991;DHT22;29654;50.784;20.604;2023-08-31T19:11:22;22.50;53.00
43991;DHT22;29654;50.784;20.604;2023-08-31T19:16:25;22.40;53.30
43991;DHT22;29654;50.784;20.604;2023-08-31T19:21:27;22.40;53.40
43991;DHT22;29654;50.784;20.604;2023-08-31T19:26:31;22.40;53.50
43991;DHT22;29654;50.784;20.604;2023-08-31T19:31:37;22.40;53.80
43991;DHT22;29654;50.784;20.604;2023-08-31T19:36:39;22.40;53.80
43991;DHT22;29654;50.784;20.604;2023-08-31T19:41:43;22.40;54.00
43991;DHT22;29654;50.784;20.604;2023-08-31T19:46:46;22.40;54.10
43991;DHT22;29654;50.784;20.604;2023-08-31T19:51:49;22.50;54.10
43991;DHT22;29654;50.784;20.604;2023-08-31T19:56:53;22.50;54.20
43991;DHT22;29654;50.784;20.604;2023-08-31T20:01:56;22.50;54.40
43991;DHT22;29654;50.784;20.604;2023-08-31T20:06:59;22.50;54.30
43991;DHT22;29654;50.784;20.604;2023-08-31T20:12:04;22.60;54.40
43991;DHT22;29654;50.784;20.604;2023-08-31T20:17:07;22.60;54.60
43991;DHT22;29654;50.784;20.604;2023-08-31T20:22:10;22.60;54.40
43991;DHT22;29654;50.784;20.604;2023-08-31T20:27:15;22.60;54.30
43991;DHT22;29654;50.784;20.604;2023-08-31T20:32:18;22.60;54.20
43991;DHT22;29654;50.784;20.604;2023-08-31T20:37:20;22.50;54.00
43991;DHT22;29654;50.784;20.604;2023-08-31T20:42:25;22.50;53.80
43991;DHT22;29654;50.784;20.604;2023-08-31T20:47:28;22.40;53.80
43991;DHT22;29654;50.784;20.604;2023-08-31T20:52:31;22.30;53.80
43991;DHT22;29654;50.784;20.604;2023-08-31T20:57:36;22.20;53.80
43991;DHT22;29654;50.784;20.604;2023-08-31T21:02:39;22.20;53.60
43991;DHT22;29654;50.784;20.604;2023-08-31T21:07:42;22.00;53.40
43991;DHT22;29654;50.784;20.604;2023-08-31T21:12:47;21.90;53.50
43991;DHT22;29654;50.784;20.604;2023-08-31T21:17:51;21.80;53.70
43991;DHT22;29654;50.784;20.604;2023-08-31T21:22:54;21.70;53.70
43991;DHT22;29654;50.784;20.604;2023-08-31T21:27:58;21.60;53.70
43991;DHT22;29654;50.784;20.604;2023-08-31T21:33:01;21.50;53.70
43991;DHT22;29654;50.784;20.604;2023-08-31T21:38:04;21.40;53.70
43991;DHT22;29654;50.784;20.604;2023-08-31T21:43:08;21.30;53.70
43991;DHT22;29654;50.784;20.604;2023-08-31T21:48:10;21.20;54.00
43991;DHT22;29654;50.784;20.604;2023-08-31T21:53:13;21.20;54.00
43991;DHT22;29654;50.784;20.604;2023-08-31T21:58:18;21.10;53.90
43991;DHT22;29654;50.784;20.604;2023-08-31T22:03:20;21.00;54.00
43991;DHT22;29654;50.784;20.604;2023-08-31T22:08:23;20.90;54.00
43991;DHT22;29654;50.784;20.604;2023-08-31T22:13:27;20.80;54.00
43991;DHT22;29654;50.784;20.604;2023-08-31T22:18:29;20.70;54.20
43991;DHT22;29654;50.784;20.604;2023-08-31T22:23:33;20.60;54.10
43991;DHT22;29654;50.784;20.604;2023-08-31T22:28:37;20.50;54.10
43991;DHT22;29654;50.784;20.604;2023-08-31T22:33:39;20.40;54.20
43991;DHT22;29654;50.784;20.604;2023-08-31T22:38:42;20.40;54.20
43991;DHT22;29654;50.784;20.604;2023-08-31T22:43:46;20.30;54.20
43991;DHT22;29654;50.784;20.604;2023-08-31T22:48:48;20.20;54.10
43991;DHT22;29654;50.784;20.604;2023-08-31T22:53:51;20.10;54.10
43991;DHT22;29654;50.784;20.604;2023-08-31T22:58:55;20.10;54.20
43991;DHT22;29654;50.784;20.604;2023-08-31T23:03:58;20.00;54.40
43991;DHT22;29654;50.784;20.604;2023-08-31T23:09:00;19.90;54.50
43991;DHT22;29654;50.784;20.604;2023-08-31T23:14:06;19.80;54.60
43991;DHT22;29654;50.784;20.604;2023-08-31T23:19:08;19.80;54.70
43991;DHT22;29654;50.784;20.604;2023-08-31T23:24:11;19.70;54.70
43991;DHT22;29654;50.784;20.604;2023-08-31T23:29:15;19.70;54.80
43991;DHT22;29654;50.784;20.604;2023-08-31T23:34:17;19.60;54.70
43991;DHT22;29654;50.784;20.604;2023-08-31T23:39:20;19.50;54.70
43991;DHT22;29654;50.784;20.604;2023-08-31T23:44:24;19.50;54.80
43991;DHT22;29654;50.784;20.604;2023-08-31T23:49:27;19.40;54.90
43991;DHT22;29654;50.784;20.604;2023-08-31T23:54:30;19.40;55.00
43991;DHT22;29654;50.784;20.604;2023-08-31T23:59:36;19.30;55.30
